createdAt,value
2018-12-14T00:00:43.550Z,9.04
2018-12-14T00:03:35.454Z,9.01
2018-12-14T00:06:27.317Z,9.03
2018-12-14T00:09:17.117Z,9.08
2018-12-14T00:12:07.227Z,9.13
2018-12-14T00:14:57.224Z,9.15
2018-12-14T00:17:47.245Z,9.24
2018-12-14T00:20:37.781Z,9.19
2018-12-14T00:23:27.750Z,9.22
2018-12-14T00:26:17.682Z,9.27
2018-12-14T00:29:07.718Z,9.33
2018-12-14T00:31:57.644Z,9.37
2018-12-14T00:34:47.702Z,9.41
2018-12-14T00:37:38.326Z,9.44
2018-12-14T00:40:28.505Z,9.45
2018-12-14T00:43:18.306Z,9.47
2018-12-14T00:46:08.483Z,9.50
2018-12-14T00:48:58.260Z,9.48
2018-12-14T00:51:48.340Z,9.46
2018-12-14T00:54:38.166Z,9.40
2018-12-14T00:57:28.169Z,9.34
2018-12-14T01:00:18.192Z,9.07
2018-12-14T01:03:09.095Z,9.09
2018-12-14T01:05:59.163Z,8.98
2018-12-14T01:08:50.795Z,8.98
2018-12-14T01:11:40.785Z,8.93
2018-12-14T01:14:30.914Z,8.97
2018-12-14T01:17:20.822Z,8.98
2018-12-14T01:20:11.085Z,9.06
2018-12-14T01:23:01.509Z,9.04
2018-12-14T01:25:51.447Z,8.98
2018-12-14T01:28:41.322Z,9.07
2018-12-14T01:31:31.209Z,9.05
2018-12-14T01:34:20.966Z,9.12
2018-12-14T01:37:11.172Z,9.14
2018-12-14T01:40:01.268Z,9.20
2018-12-14T01:42:51.947Z,9.11
2018-12-14T01:45:41.844Z,9.04
2018-12-14T01:48:31.899Z,9.02
2018-12-14T01:51:21.769Z,9.01
2018-12-14T01:54:11.818Z,8.97
2018-12-14T01:57:01.529Z,8.91
2018-12-14T01:59:51.424Z,8.98
2018-12-14T02:02:41.705Z,9.00
2018-12-14T02:05:31.730Z,8.95
2018-12-14T02:08:21.562Z,9.01
2018-12-14T02:11:11.599Z,9.02
2018-12-14T02:14:01.615Z,9.00
2018-12-14T02:16:51.839Z,9.04
2018-12-14T02:19:42.472Z,9.00
2018-12-14T02:22:32.077Z,9.02
2018-12-14T02:25:22.210Z,9.00
2018-12-14T02:28:12.210Z,8.99
2018-12-14T02:31:02.213Z,8.99
2018-12-14T02:33:52.466Z,9.00
2018-12-14T02:36:42.224Z,8.99
2018-12-14T02:39:33.117Z,9.00
2018-12-14T02:42:23.891Z,9.04
2018-12-14T02:45:14.029Z,9.01
2018-12-14T02:48:04.081Z,9.07
2018-12-14T02:50:54.003Z,9.06
2018-12-14T02:53:44.831Z,9.03
2018-12-14T02:56:34.818Z,9.03
2018-12-14T02:59:24.695Z,9.06
2018-12-14T03:02:14.573Z,9.11
2018-12-14T03:05:04.589Z,9.11
2018-12-14T03:07:54.761Z,9.15
2018-12-14T03:10:44.576Z,9.16
2018-12-14T03:13:34.577Z,9.14
2018-12-14T03:16:24.419Z,9.10
2018-12-14T03:19:14.352Z,9.09
2018-12-14T03:22:04.244Z,9.12
2018-12-14T03:24:54.288Z,9.16
2018-12-14T03:27:44.139Z,9.10
2018-12-14T03:30:35.020Z,9.10
2018-12-14T03:33:25.009Z,9.10
2018-12-14T03:36:15.002Z,9.12
2018-12-14T03:39:06.310Z,9.13
2018-12-14T03:41:56.895Z,9.19
2018-12-14T03:44:46.784Z,9.26
2018-12-14T03:47:36.729Z,9.20
2018-12-14T03:50:26.955Z,9.19
2018-12-14T03:53:16.779Z,9.17
2018-12-14T03:56:06.758Z,9.18
2018-12-14T03:58:57.551Z,9.22
2018-12-14T04:01:47.472Z,9.25
2018-12-14T04:04:37.375Z,9.23
2018-12-14T04:07:27.220Z,9.28
2018-12-14T04:10:17.358Z,9.27
2018-12-14T04:13:08.002Z,9.32
2018-12-14T04:15:58.074Z,9.30
2018-12-14T04:18:48.184Z,9.28
2018-12-14T04:21:38.138Z,9.27
2018-12-14T04:24:28.232Z,9.38
2018-12-14T04:27:18.358Z,9.44
2018-12-14T04:30:08.495Z,9.53
2018-12-14T04:32:58.546Z,9.45
2018-12-14T04:35:49.259Z,9.47
2018-12-14T04:38:41.246Z,9.39
2018-12-14T04:41:31.922Z,9.53
2018-12-14T04:44:21.879Z,9.58
2018-12-14T04:47:12.103Z,9.59
2018-12-14T04:50:02.918Z,9.80
2018-12-14T04:52:53.071Z,9.82
2018-12-14T04:55:43.134Z,9.80
2018-12-14T04:58:33.888Z,9.84
2018-12-14T05:01:23.799Z,9.74
2018-12-14T05:04:13.566Z,9.84
2018-12-14T05:07:03.529Z,9.96
2018-12-14T05:09:54.206Z,10.06
2018-12-14T05:12:44.178Z,10.04
2018-12-14T05:15:35.225Z,10.02
2018-12-14T05:18:25.315Z,10.04
2018-12-14T05:21:15.278Z,10.18
2018-12-14T05:24:05.232Z,10.12
2018-12-14T05:26:56.368Z,10.01
2018-12-14T05:29:48.095Z,9.97
2018-12-14T05:32:38.592Z,9.99
2018-12-14T05:35:28.390Z,9.98
2018-12-14T05:38:19.089Z,10.00
2018-12-14T05:41:09.764Z,9.92
2018-12-14T05:43:59.810Z,9.83
2018-12-14T05:46:49.894Z,9.78
2018-12-14T05:49:40.658Z,9.66
2018-12-14T05:52:33.378Z,9.67
2018-12-14T05:55:23.337Z,9.70
2018-12-14T05:58:13.412Z,9.68
2018-12-14T06:01:04.278Z,9.63
2018-12-14T06:03:55.587Z,9.66
2018-12-14T06:06:46.245Z,9.65
2018-12-14T06:09:36.799Z,9.70
2018-12-14T06:12:27.282Z,9.64
2018-12-14T06:15:18.378Z,9.70
2018-12-14T06:18:08.304Z,9.66
2018-12-14T06:20:58.498Z,9.76
2018-12-14T06:23:49.232Z,9.75
2018-12-14T06:26:40.805Z,9.73
2018-12-14T06:29:30.818Z,9.66
2018-12-14T06:32:20.691Z,9.69
2018-12-14T06:35:10.687Z,9.67
2018-12-14T06:38:00.768Z,9.75
2018-12-14T06:40:53.404Z,9.78
2018-12-14T06:43:46.710Z,9.74
2018-12-14T06:46:36.492Z,9.74
2018-12-14T06:49:27.127Z,9.73
2018-12-14T06:52:17.243Z,9.80
2018-12-14T06:55:08.028Z,9.89
2018-12-14T06:57:58.015Z,9.88
2018-12-14T07:00:48.918Z,9.93
2018-12-14T07:03:39.090Z,9.84
2018-12-14T07:06:29.773Z,9.82
2018-12-14T07:09:19.490Z,9.94
2018-12-14T07:12:09.477Z,10.03
2018-12-14T07:14:59.195Z,10.03
2018-12-14T07:17:49.314Z,9.90
2018-12-14T07:20:40.410Z,10.02
2018-12-14T07:23:30.774Z,10.05
2018-12-14T07:26:20.566Z,9.96
2018-12-14T07:29:11.326Z,9.97
2018-12-14T07:32:01.485Z,9.85
2018-12-14T07:34:51.593Z,9.98
2018-12-14T07:37:41.966Z,9.93
2018-12-14T07:40:32.158Z,9.96
2018-12-14T07:43:28.295Z,9.98
2018-12-14T07:46:14.917Z,10.19
2018-12-14T07:49:04.774Z,10.25
2018-12-14T07:51:54.740Z,10.25
2018-12-14T07:54:44.751Z,10.28
2018-12-14T07:57:34.605Z,10.37
2018-12-14T08:00:24.433Z,10.42
2018-12-14T08:03:14.371Z,10.52
2018-12-14T08:06:04.220Z,10.58
2018-12-14T08:08:54.341Z,10.51
2018-12-14T08:11:45.141Z,10.48
2018-12-14T08:14:35.862Z,10.63
2018-12-14T08:17:25.632Z,10.60
2018-12-14T08:20:17.240Z,10.73
2018-12-14T08:23:07.771Z,10.67
2018-12-14T08:25:57.739Z,10.76
2018-12-14T08:28:47.554Z,10.75
2018-12-14T08:31:37.902Z,10.86
2018-12-14T08:34:28.586Z,10.87
2018-12-14T08:37:18.779Z,10.89
2018-12-14T08:40:09.618Z,10.89
2018-12-14T08:43:00.553Z,10.95
2018-12-14T08:45:51.122Z,10.78
2018-12-14T08:48:40.988Z,10.78
2018-12-14T08:51:30.983Z,10.81
2018-12-14T08:54:21.209Z,10.93
2018-12-14T08:57:11.039Z,11.01
2018-12-14T09:00:01.417Z,10.99
2018-12-14T09:02:52.930Z,10.97
2018-12-14T09:05:42.898Z,11.10
2018-12-14T09:08:32.994Z,11.16
2018-12-14T09:11:22.953Z,11.07
2018-12-14T09:14:12.774Z,11.24
2018-12-14T09:17:02.628Z,11.24
2018-12-14T09:19:52.947Z,11.26
2018-12-14T09:22:43.396Z,11.33
2018-12-14T09:25:33.358Z,11.37
2018-12-14T09:28:23.310Z,11.43
2018-12-14T09:31:13.313Z,11.46
2018-12-14T09:34:03.402Z,11.54
2018-12-14T09:36:54.109Z,11.59
2018-12-14T09:39:44.918Z,11.69
2018-12-14T09:42:34.796Z,11.67
2018-12-14T09:45:24.667Z,11.39
2018-12-14T09:48:14.551Z,11.08
2018-12-14T09:51:04.620Z,11.07
2018-12-14T09:53:55.206Z,11.30
2018-12-14T09:56:45.324Z,11.38
2018-12-14T09:59:35.214Z,11.60
2018-12-14T10:02:25.188Z,11.42
2018-12-14T10:05:15.072Z,11.57
2018-12-14T10:08:05.132Z,11.45
2018-12-14T10:10:55.391Z,11.57
2018-12-14T10:13:45.944Z,11.74
2018-12-14T10:16:35.675Z,11.84
2018-12-14T10:19:25.434Z,11.99
2018-12-14T10:22:15.586Z,11.80
2018-12-14T10:25:05.586Z,11.86
2018-12-14T10:27:55.295Z,11.62
2018-12-14T10:30:45.368Z,11.76
2018-12-14T10:33:35.250Z,11.82
2018-12-14T10:36:25.283Z,11.89
2018-12-14T10:39:15.273Z,11.94
2018-12-14T10:42:06.053Z,11.97
2018-12-14T10:44:56.080Z,11.87
2018-12-14T10:47:46.141Z,11.83
2018-12-14T10:50:39.724Z,11.82
2018-12-14T10:53:29.082Z,11.79
2018-12-14T10:56:19.939Z,11.81
2018-12-14T10:59:12.522Z,11.81
2018-12-14T11:02:02.546Z,11.82
2018-12-14T11:04:52.366Z,11.84
2018-12-14T11:07:42.335Z,11.95
2018-12-14T11:10:33.243Z,11.78
2018-12-14T11:13:23.007Z,11.68
2018-12-14T11:16:12.834Z,11.58
2018-12-14T11:19:03.459Z,11.48
2018-12-14T11:21:53.246Z,11.43
2018-12-14T11:24:43.085Z,11.32
2018-12-14T11:27:33.287Z,11.37
2018-12-14T11:30:24.072Z,11.34
2018-12-14T11:33:13.814Z,11.49
2018-12-14T11:36:03.639Z,11.51
2018-12-14T11:38:53.836Z,11.53
2018-12-14T11:41:44.769Z,11.71
2018-12-14T11:44:35.708Z,11.77
2018-12-14T11:47:26.411Z,11.67
2018-12-14T11:50:16.540Z,11.60
2018-12-14T11:53:06.437Z,11.62
2018-12-14T11:55:57.563Z,11.55
2018-12-14T11:58:48.887Z,11.57
2018-12-14T12:01:39.645Z,11.66
2018-12-14T12:04:29.379Z,11.54
2018-12-14T12:07:19.719Z,11.68
2018-12-14T12:10:11.347Z,11.78
2018-12-14T12:13:02.037Z,11.93
2018-12-14T12:15:52.275Z,11.95
2018-12-14T12:18:43.093Z,11.75
2018-12-14T12:21:33.680Z,11.81
2018-12-14T12:24:24.281Z,11.80
2018-12-14T12:27:14.884Z,12.00
2018-12-14T12:30:04.906Z,12.12
2018-12-14T12:32:54.865Z,12.20
2018-12-14T12:35:45.170Z,12.27
2018-12-14T12:38:38.284Z,12.27
2018-12-14T12:41:29.009Z,12.31
2018-12-14T12:44:18.773Z,12.28
2018-12-14T12:47:08.635Z,12.27
2018-12-14T12:49:59.447Z,12.28
2018-12-14T12:52:49.470Z,12.30
2018-12-14T12:55:39.274Z,12.34
2018-12-14T12:58:30.338Z,12.40
2018-12-14T13:01:21.027Z,12.33
2018-12-14T13:04:11.234Z,12.41
2018-12-14T13:07:01.957Z,12.37
2018-12-14T13:09:52.037Z,12.34
2018-12-14T13:12:42.715Z,12.31
2018-12-14T13:15:32.657Z,12.29
2018-12-14T13:18:22.548Z,12.25
2018-12-14T13:21:12.675Z,12.23
2018-12-14T13:24:02.506Z,12.03
2018-12-14T13:26:52.297Z,12.06
2018-12-14T13:29:42.766Z,12.10
2018-12-14T13:32:33.652Z,12.01
2018-12-14T13:35:25.798Z,11.86
2018-12-14T13:38:16.328Z,11.94
2018-12-14T13:41:07.280Z,12.04
2018-12-14T13:43:57.165Z,12.11
2018-12-14T13:46:47.183Z,12.15
2018-12-14T13:49:38.419Z,12.18
2018-12-14T13:52:29.320Z,12.19
2018-12-14T13:55:19.447Z,12.13
2018-12-14T13:58:09.292Z,12.17
2018-12-14T14:01:00.420Z,11.94
2018-12-14T14:03:50.239Z,11.98
2018-12-14T14:06:41.595Z,12.00
2018-12-14T14:09:31.920Z,11.98
2018-12-14T14:12:22.479Z,11.90
2018-12-14T14:15:12.911Z,11.68
2018-12-14T14:18:03.683Z,11.30
2018-12-14T14:20:53.753Z,11.41
2018-12-14T14:23:43.552Z,11.46
2018-12-14T14:26:33.382Z,11.59
2018-12-14T14:29:23.399Z,11.65
2018-12-14T14:32:13.329Z,11.74
2018-12-14T14:35:04.325Z,11.74
2018-12-14T14:37:57.623Z,11.75
2018-12-14T14:40:47.066Z,11.46
2018-12-14T14:43:37.011Z,11.57
2018-12-14T14:46:26.981Z,11.58
2018-12-14T14:49:16.835Z,11.55
2018-12-14T14:52:06.718Z,11.46
2018-12-14T14:54:57.446Z,11.16
2018-12-14T14:57:48.534Z,11.03
2018-12-14T15:00:39.114Z,11.09
2018-12-14T15:03:29.212Z,11.08
2018-12-14T15:06:19.287Z,11.20
2018-12-14T15:09:10.630Z,11.27
2018-12-14T15:12:01.367Z,11.27
2018-12-14T15:14:51.446Z,11.17
2018-12-14T15:17:43.190Z,11.20
2018-12-14T15:20:33.253Z,11.15
2018-12-14T15:23:23.366Z,11.23
2018-12-14T15:26:13.528Z,11.30
2018-12-14T15:29:04.252Z,11.33
2018-12-14T15:31:54.738Z,11.37
2018-12-14T15:34:47.098Z,11.31
2018-12-14T15:37:37.470Z,11.35
2018-12-14T15:40:28.085Z,11.23
2018-12-14T15:43:18.885Z,11.13
2018-12-14T15:46:08.555Z,11.26
2018-12-14T15:48:59.162Z,11.27
2018-12-14T15:51:49.457Z,11.28
2018-12-14T15:54:39.393Z,11.26
2018-12-14T15:57:29.150Z,11.34
2018-12-14T16:00:19.289Z,11.36
2018-12-14T16:03:10.269Z,11.46
2018-12-14T16:06:01.303Z,11.43
2018-12-14T16:08:51.886Z,11.43
2018-12-14T16:11:41.946Z,11.40
2018-12-14T16:14:34.452Z,11.44
2018-12-14T16:17:25.103Z,11.46
2018-12-14T16:20:15.737Z,11.48
2018-12-14T16:23:05.638Z,11.37
2018-12-14T16:25:55.415Z,11.44
2018-12-14T16:28:45.372Z,11.40
2018-12-14T16:31:35.382Z,11.38
2018-12-14T16:34:25.528Z,11.35
2018-12-14T16:37:15.537Z,11.42
2018-12-14T16:40:06.809Z,11.39
2018-12-14T16:42:57.278Z,11.43
2018-12-14T16:45:47.762Z,11.43
2018-12-14T16:48:38.033Z,11.47
2018-12-14T16:51:27.987Z,11.38
2018-12-14T16:54:18.718Z,11.30
2018-12-14T16:57:09.021Z,11.34
2018-12-14T16:59:59.634Z,11.33
2018-12-14T17:02:49.723Z,11.38
2018-12-14T17:05:39.586Z,11.32
2018-12-14T17:08:29.633Z,11.37
2018-12-14T17:11:19.687Z,11.34
2018-12-14T17:14:09.981Z,11.44
2018-12-14T17:16:59.730Z,11.37
2018-12-14T17:19:50.014Z,11.39
2018-12-14T17:22:40.054Z,11.42
2018-12-14T17:25:30.176Z,11.41
2018-12-14T17:28:21.038Z,11.33
2018-12-14T17:31:11.993Z,11.30
2018-12-14T17:34:01.618Z,11.27
2018-12-14T17:36:51.830Z,11.33
2018-12-14T17:39:43.555Z,11.32
2018-12-14T17:42:35.431Z,11.29
2018-12-14T17:45:25.402Z,11.28
2018-12-14T17:48:15.245Z,11.28
2018-12-14T17:51:05.229Z,11.29
2018-12-14T17:53:56.074Z,11.34
2018-12-14T17:56:45.854Z,11.33
2018-12-14T17:59:36.092Z,11.35
2018-12-14T18:02:26.837Z,11.31
2018-12-14T18:05:17.774Z,11.32
2018-12-14T18:08:08.445Z,11.33
2018-12-14T18:10:58.744Z,11.37
2018-12-14T18:13:49.650Z,11.42
2018-12-14T18:16:40.157Z,11.44
2018-12-14T18:19:30.787Z,11.42
2018-12-14T18:22:22.307Z,11.40
2018-12-14T18:25:13.248Z,11.43
2018-12-14T18:28:03.424Z,11.42
2018-12-14T18:30:53.336Z,11.51
2018-12-14T18:33:43.316Z,11.48
2018-12-14T18:36:33.910Z,11.46
2018-12-14T18:39:23.868Z,11.54
2018-12-14T18:42:13.793Z,11.57
2018-12-14T18:45:05.131Z,11.60
2018-12-14T18:47:55.469Z,11.50
2018-12-14T18:50:46.545Z,11.40
2018-12-14T18:53:36.520Z,11.45
2018-12-14T18:56:26.944Z,11.44
2018-12-14T18:59:17.222Z,11.47
2018-12-14T19:02:07.051Z,11.44
2018-12-14T19:04:56.996Z,11.48
2018-12-14T19:07:47.013Z,11.50
2018-12-14T19:10:37.763Z,11.47
2018-12-14T19:13:27.557Z,11.44
2018-12-14T19:16:18.343Z,11.35
2018-12-14T19:19:09.034Z,11.43
2018-12-14T19:21:59.806Z,11.48
2018-12-14T19:24:51.342Z,11.50
2018-12-14T19:27:42.081Z,11.53
2018-12-14T19:30:32.939Z,11.52
2018-12-14T19:33:22.866Z,11.59
2018-12-14T19:36:12.960Z,11.64
2018-12-14T19:39:02.990Z,11.66
2018-12-14T19:41:54.875Z,11.66
2018-12-14T19:44:45.727Z,11.69
2018-12-14T19:47:37.837Z,11.64
2018-12-14T19:50:28.586Z,11.70
2018-12-14T19:53:19.347Z,11.84
2018-12-14T19:56:09.334Z,11.90
2018-12-14T19:59:00.015Z,11.96
2018-12-14T20:01:49.794Z,11.91
2018-12-14T20:04:39.672Z,12.05
2018-12-14T20:07:29.572Z,12.15
2018-12-14T20:10:19.410Z,12.16
2018-12-14T20:13:09.229Z,12.15
2018-12-14T20:16:00.009Z,12.13
2018-12-14T20:18:50.987Z,12.18
2018-12-14T20:21:43.242Z,12.11
2018-12-14T20:24:33.198Z,12.13
2018-12-14T20:27:23.139Z,12.15
2018-12-14T20:30:14.124Z,12.18
2018-12-14T20:33:04.158Z,12.12
2018-12-14T20:35:54.027Z,12.03
2018-12-14T20:38:44.097Z,12.03
2018-12-14T20:41:34.429Z,12.06
2018-12-14T20:44:25.153Z,12.01
2018-12-14T20:47:15.114Z,12.05
2018-12-14T20:50:05.416Z,12.07
2018-12-14T20:52:55.946Z,12.09
2018-12-14T20:55:45.710Z,12.02
2018-12-14T20:58:35.601Z,11.96
2018-12-14T21:01:25.646Z,11.95
2018-12-14T21:04:16.616Z,12.05
2018-12-14T21:07:07.594Z,12.04
2018-12-14T21:09:57.536Z,11.97
2018-12-14T21:12:48.690Z,12.01
2018-12-14T21:15:39.255Z,12.02
2018-12-14T21:18:29.957Z,12.00
2018-12-14T21:21:19.803Z,12.03
2018-12-14T21:24:09.873Z,12.03
2018-12-14T21:26:59.819Z,12.03
2018-12-14T21:29:49.491Z,12.00
2018-12-14T21:32:40.390Z,12.00
2018-12-14T21:35:31.201Z,12.05
2018-12-14T21:38:20.970Z,12.11
2018-12-14T21:41:11.910Z,12.11
2018-12-14T21:44:02.830Z,12.16
2018-12-14T21:46:52.780Z,12.20
2018-12-14T21:49:43.622Z,12.11
2018-12-14T21:52:33.595Z,12.11
2018-12-14T21:55:23.503Z,12.13
2018-12-14T21:58:13.824Z,12.24
2018-12-14T22:01:03.581Z,12.20
2018-12-14T22:03:53.698Z,12.19
2018-12-14T22:06:43.595Z,12.21
2018-12-14T22:09:33.958Z,12.25
2018-12-14T22:12:24.067Z,12.26
2018-12-14T22:15:13.888Z,12.26
2018-12-14T22:18:03.690Z,12.33
2018-12-14T22:20:53.820Z,12.29
2018-12-14T22:23:43.758Z,12.37
2018-12-14T22:26:33.726Z,12.31
2018-12-14T22:29:24.585Z,12.35
2018-12-14T22:32:14.569Z,12.36
2018-12-14T22:35:05.374Z,12.43
2018-12-14T22:37:55.145Z,12.46
2018-12-14T22:40:44.955Z,12.53
2018-12-14T22:43:35.745Z,12.52
2018-12-14T22:46:26.709Z,12.55
2018-12-14T22:49:17.515Z,12.54
2018-12-14T22:52:07.152Z,12.56
2018-12-14T22:54:57.153Z,12.61
2018-12-14T22:57:47.008Z,12.55
2018-12-14T23:00:41.094Z,12.47
2018-12-14T23:03:31.254Z,12.47
2018-12-14T23:06:21.318Z,12.50
2018-12-14T23:09:11.361Z,12.50
2018-12-14T23:12:03.290Z,12.50
2018-12-14T23:14:53.447Z,12.53
2018-12-14T23:17:44.508Z,12.52
2018-12-14T23:20:35.647Z,12.50
2018-12-14T23:23:25.722Z,12.48
2018-12-14T23:26:15.568Z,12.40
2018-12-14T23:29:05.430Z,12.51
2018-12-14T23:31:55.172Z,12.51
2018-12-14T23:34:45.412Z,12.50
2018-12-14T23:37:36.258Z,12.54
2018-12-14T23:40:26.077Z,12.65
2018-12-14T23:43:16.163Z,12.69
2018-12-14T23:46:07.023Z,12.71
2018-12-14T23:48:56.898Z,12.74
2018-12-14T23:51:46.929Z,12.71
2018-12-14T23:54:36.788Z,12.76
2018-12-14T23:57:26.870Z,12.77
